Time;durP1;ratioP1;P1;durP2;ratioP2;P2;SDS_P1;SDS_P2;PMS_P1;PMS_P2;Temp;Humidity;BMP_temperature;BMP_pressure;BME280_temperature;BME280_humidity;BME280_pressure;Samples;Min_cycle;Max_cycle;Signal;HPM_P1;HPM_P2
2021/11/23 00:01:17;;;;;;;8.73;4.63;;;4.90;99.90;;;;;;4127244;28;20034;-72
2021/11/23 00:03:19;;;;;;;6.88;4.10;;;4.90;99.90;;;;;;4139980;28;20048;-72
2021/11/23 00:05:19;;;;;;;5.93;3.83;;;4.90;99.90;;;;;;4145185;28;20062;-72
2021/11/23 00:07:21;;;;;;;8.65;4.55;;;4.80;99.90;;;;;;4142198;28;20045;-71
2021/11/23 00:09:21;;;;;;;7.97;4.10;;;4.90;99.90;;;;;;4148589;28;20065;-72
2021/11/23 00:11:22;;;;;;;9.57;4.20;;;4.80;99.90;;;;;;4141122;28;20056;-72
2021/11/23 00:13:22;;;;;;;6.72;4.15;;;4.80;99.90;;;;;;4142670;28;20496;-72
2021/11/23 00:15:23;;;;;;;5.75;3.90;;;4.90;99.90;;;;;;4140174;28;20033;-71
2021/11/23 00:17:24;;;;;;;6.82;3.60;;;4.80;99.90;;;;;;4140318;28;20037;-72
2021/11/23 00:19:25;;;;;;;7.43;4.15;;;4.80;99.90;;;;;;4139374;28;20445;-71
2021/11/23 00:21:25;;;;;;;9.32;4.43;;;4.80;99.90;;;;;;4146054;28;20060;-72
2021/11/23 00:23:26;;;;;;;6.78;3.97;;;4.70;99.90;;;;;;4124729;28;20763;-72
2021/11/23 00:25:28;;;;;;;7.32;4.05;;;4.80;99.90;;;;;;4144753;28;20169;-72
2021/11/23 00:27:28;;;;;;;6.32;3.83;;;4.70;99.90;;;;;;4142623;28;20033;-72
2021/11/23 00:29:30;;;;;;;6.55;3.78;;;4.70;99.90;;;;;;4142767;28;20113;-72
2021/11/23 00:31:30;;;;;;;7.32;4.38;;;4.70;99.90;;;;;;4125389;28;20042;-72
2021/11/23 00:33:36;;;;;;;5.32;3.83;;;4.70;99.90;;;;;;4142033;28;20570;-72
2021/11/23 00:35:37;;;;;;;7.65;3.90;;;4.70;99.90;;;;;;4138515;28;20619;-72
2021/11/23 00:37:38;;;;;;;6.18;3.80;;;4.70;99.90;;;;;;4143895;28;20124;-72
2021/11/23 00:39:39;;;;;;;6.13;3.92;;;4.70;99.90;;;;;;4139419;28;20465;-71
2021/11/23 00:41:40;;;;;;;6.82;4.30;;;4.70;99.90;;;;;;4145405;28;20030;-72
2021/11/23 00:43:40;;;;;;;5.80;3.63;;;4.70;99.90;;;;;;4141765;28;20030;-72
2021/11/23 00:45:42;;;;;;;5.72;3.80;;;4.70;99.90;;;;;;4131892;28;20033;-72
2021/11/23 00:47:42;;;;;;;4.88;3.65;;;4.80;99.90;;;;;;4140765;28;20891;-72
2021/11/23 00:49:43;;;;;;;6.53;4.22;;;4.70;99.90;;;;;;4145899;28;20113;-72
2021/11/23 00:51:44;;;;;;;7.63;4.35;;;4.70;99.90;;;;;;4148114;28;20038;-72
2021/11/23 00:53:45;;;;;;;5.93;3.75;;;4.70;99.90;;;;;;4125769;28;20031;-72
2021/11/23 00:55:46;;;;;;;7.63;4.28;;;4.70;99.90;;;;;;4144231;28;20101;-72
2021/11/23 00:57:46;;;;;;;9.20;4.60;;;4.70;99.90;;;;;;4142808;28;20040;-71
2021/11/23 00:59:47;;;;;;;7.47;4.40;;;4.70;99.90;;;;;;4142652;28;20774;-72
2021/11/23 01:01:47;;;;;;;8.07;3.65;;;4.70;99.90;;;;;;4144073;28;20022;-72
2021/11/23 01:03:48;;;;;;;7.30;4.57;;;4.70;99.90;;;;;;4126134;28;20719;-72
2021/11/23 01:05:50;;;;;;;7.00;4.05;;;4.70;99.90;;;;;;4143716;28;20042;-72
2021/11/23 01:07:50;;;;;;;5.80;3.40;;;4.70;99.90;;;;;;4143745;28;20041;-72
2021/11/23 01:09:51;;;;;;;5.80;3.63;;;4.70;99.90;;;;;;4144251;28;20338;-72
2021/11/23 01:11:51;;;;;;;6.57;3.50;;;4.70;99.90;;;;;;4145283;28;20030;-72
2021/11/23 01:13:52;;;;;;;9.43;4.00;;;4.60;99.90;;;;;;4128585;28;20041;-72
2021/11/23 01:15:53;;;;;;;4.18;3.55;;;4.60;99.90;;;;;;4129396;28;20041;-71
2021/11/23 01:17:53;;;;;;;7.18;4.18;;;4.60;99.90;;;;;;4129084;28;20037;-72
2021/11/23 01:19:54;;;;;;;6.00;4.07;;;4.60;99.90;;;;;;4130516;28;20057;-72
2021/11/23 01:21:55;;;;;;;5.32;3.53;;;4.50;99.90;;;;;;4145478;28;20034;-72
2021/11/23 01:23:55;;;;;;;5.40;3.60;;;4.50;99.90;;;;;;4149645;28;20037;-72
2021/11/23 01:25:57;;;;;;;8.40;4.03;;;4.50;99.90;;;;;;4126995;28;20104;-72
2021/11/23 01:27:57;;;;;;;6.78;4.10;;;4.50;99.90;;;;;;4147125;28;20112;-72
2021/11/23 01:29:58;;;;;;;6.18;3.60;;;4.50;99.90;;;;;;4145441;28;20094;-72
2021/11/23 01:31:59;;;;;;;6.35;3.67;;;4.50;99.90;;;;;;4144165;28;20044;-72
2021/11/23 01:33:59;;;;;;;6.93;4.28;;;4.60;99.90;;;;;;4123904;28;20507;-72
2021/11/23 01:36:01;;;;;;;6.78;4.28;;;4.50;99.90;;;;;;4134456;28;20053;-72
2021/11/23 01:38:02;;;;;;;5.80;4.07;;;4.50;99.90;;;;;;4144873;28;20037;-72
2021/11/23 01:40:03;;;;;;;6.00;4.05;;;4.50;99.90;;;;;;4148095;28;20037;-71
2021/11/23 01:42:04;;;;;;;8.05;4.63;;;4.50;99.90;;;;;;4145795;28;20034;-71
2021/11/23 01:44:05;;;;;;;6.55;4.57;;;4.50;99.90;;;;;;4146982;28;20432;-72
2021/11/23 01:46:06;;;;;;;7.00;4.43;;;4.50;99.90;;;;;;4124065;28;20034;-72
2021/11/23 01:48:08;;;;;;;6.97;4.70;;;4.50;99.90;;;;;;4126334;28;20018;-72
2021/11/23 01:50:11;;;;;;;6.72;3.83;;;4.50;99.90;;;;;;4127243;28;20530;-71
2021/11/23 01:52:11;;;;;;;7.13;4.47;;;4.50;99.90;;;;;;4151225;28;20813;-72
2021/11/23 01:54:12;;;;;;;8.55;4.40;;;4.50;99.90;;;;;;4143738;28;20042;-72
2021/11/23 01:56:13;;;;;;;6.90;4.55;;;4.50;99.90;;;;;;4124519;28;20324;-72
2021/11/23 01:58:14;;;;;;;7.82;4.45;;;4.50;99.90;;;;;;4128427;28;20087;-72
2021/11/23 02:00:15;;;;;;;10.10;4.32;;;4.50;99.90;;;;;;4143994;28;20040;-72
2021/11/23 02:02:16;;;;;;;7.55;4.18;;;4.50;99.90;;;;;;4125701;28;20073;-72
2021/11/23 02:04:17;;;;;;;6.57;4.15;;;4.50;99.90;;;;;;4147195;28;20030;-71
2021/11/23 02:06:18;;;;;;;7.50;4.15;;;4.50;99.90;;;;;;4141857;28;20505;-72
2021/11/23 02:08:18;;;;;;;7.10;3.97;;;4.50;99.90;;;;;;4129662;28;20027;-72
2021/11/23 02:10:19;;;;;;;4.97;3.80;;;4.50;99.90;;;;;;4127990;28;20060;-72
2021/11/23 02:12:21;;;;;;;6.70;3.80;;;4.50;99.90;;;;;;4143732;28;20081;-72
2021/11/23 02:14:22;;;;;;;5.53;4.03;;;4.50;99.90;;;;;;4149275;28;20040;-72
2021/11/23 02:16:23;;;;;;;9.63;4.50;;;4.50;99.90;;;;;;4151151;28;20536;-72
2021/11/23 02:18:26;;;;;;;8.30;4.20;;;4.40;99.90;;;;;;4128640;28;20065;-72
2021/11/23 02:20:26;;;;;;;6.18;4.13;;;4.50;99.90;;;;;;4142833;28;20077;-72
2021/11/23 02:22:27;;;;;;;7.15;4.18;;;4.50;99.90;;;;;;4147351;28;20034;-71
2021/11/23 02:24:28;;;;;;;9.48;4.45;;;4.40;99.90;;;;;;4144594;28;20029;-72
2021/11/23 02:26:29;;;;;;;6.13;4.25;;;4.50;99.90;;;;;;4144280;28;20030;-72
2021/11/23 02:28:30;;;;;;;6.97;4.10;;;4.40;99.90;;;;;;4149484;28;20072;-72
2021/11/23 02:30:31;;;;;;;6.43;4.05;;;4.40;99.90;;;;;;4124960;28;20033;-72
2021/11/23 02:32:38;;;;;;;7.15;4.35;;;4.50;99.90;;;;;;4124650;28;20113;-72
2021/11/23 02:34:39;;;;;;;6.13;3.90;;;4.40;99.90;;;;;;4143655;28;20080;-72
2021/11/23 02:36:41;;;;;;;5.97;3.85;;;4.40;99.90;;;;;;4125321;28;20520;-72
2021/11/23 02:38:42;;;;;;;7.35;4.00;;;4.40;99.90;;;;;;4145373;28;20249;-72
2021/11/23 02:40:43;;;;;;;6.38;3.80;;;4.40;99.90;;;;;;4140788;28;20049;-72
2021/11/23 02:42:44;;;;;;;6.07;4.00;;;4.40;99.90;;;;;;4126175;28;20034;-72
2021/11/23 02:44:44;;;;;;;8.20;4.20;;;4.40;99.90;;;;;;4141780;28;20464;-71
2021/11/23 02:46:48;;;;;;;6.40;3.88;;;4.40;99.90;;;;;;4123844;28;20041;-72
2021/11/23 02:48:49;;;;;;;5.35;3.70;;;4.40;99.90;;;;;;4105176;28;20034;-72
2021/11/23 02:51:03;;;;;;;7.55;4.55;;;4.30;99.90;;;;;;4148909;28;20117;-71
2021/11/23 02:53:07;;;;;;;8.38;4.85;;;4.40;99.90;;;;;;4139356;28;20536;-72
2021/11/23 02:55:07;;;;;;;7.75;4.50;;;4.40;99.90;;;;;;4139476;28;20057;-71
2021/11/23 02:57:08;;;;;;;6.80;4.75;;;4.40;99.90;;;;;;4144059;28;20022;-72
2021/11/23 02:59:09;;;;;;;6.90;4.75;;;4.40;99.90;;;;;;4148886;28;20018;-71
2021/11/23 03:01:09;;;;;;;10.10;5.53;;;4.40;99.90;;;;;;4124961;28;20128;-71
2021/11/23 03:03:11;;;;;;;8.70;4.88;;;4.30;99.90;;;;;;4144679;28;20036;-72
2021/11/23 03:05:12;;;;;;;8.00;5.43;;;4.30;99.90;;;;;;4145680;28;20557;-72
2021/11/23 03:07:13;;;;;;;7.75;5.07;;;4.40;99.90;;;;;;4149742;28;20061;-72
2021/11/23 03:09:13;;;;;;;8.60;5.35;;;4.40;99.90;;;;;;4132584;28;20030;-71
2021/11/23 03:11:17;;;;;;;8.10;5.38;;;4.40;99.90;;;;;;4142208;28;20028;-72
2021/11/23 03:13:18;;;;;;;8.10;5.15;;;4.40;99.90;;;;;;4115979;28;20542;-72
2021/11/23 03:15:19;;;;;;;8.93;5.72;;;4.50;99.90;;;;;;4147233;28;20026;-72
2021/11/23 03:17:21;;;;;;;16.75;5.03;;;4.50;99.90;;;;;;4127776;28;20533;-72
2021/11/23 03:19:21;;;;;;;7.95;5.05;;;4.50;99.90;;;;;;4149681;28;20506;-72
2021/11/23 03:21:22;;;;;;;11.52;5.80;;;4.60;99.90;;;;;;4151888;28;20037;-72
2021/11/23 03:23:22;;;;;;;8.10;5.05;;;4.60;99.90;;;;;;4147291;28;20107;-72
2021/11/23 03:25:24;;;;;;;9.50;5.03;;;4.60;99.90;;;;;;4153275;28;20087;-72
2021/11/23 03:27:25;;;;;;;6.75;5.05;;;4.70;99.90;;;;;;4153899;28;20131;-72
2021/11/23 03:29:25;;;;;;;7.55;4.63;;;4.60;99.90;;;;;;4146199;28;20025;-72
2021/11/23 03:31:26;;;;;;;6.95;4.32;;;4.70;99.90;;;;;;4146658;28;20075;-72
2021/11/23 03:33:27;;;;;;;8.15;4.90;;;4.70;99.90;;;;;;4151425;28;20087;-72
2021/11/23 03:35:30;;;;;;;7.65;4.97;;;4.70;99.90;;;;;;4155254;28;20068;-72
2021/11/23 03:37:31;;;;;;;6.22;4.22;;;4.80;99.90;;;;;;4149092;28;20037;-72
2021/11/23 03:39:32;;;;;;;8.68;4.65;;;4.80;99.90;;;;;;4132468;28;20421;-72
2021/11/23 03:41:33;;;;;;;6.70;4.13;;;4.80;99.90;;;;;;4137845;28;20458;-72
2021/11/23 03:43:33;;;;;;;6.43;4.13;;;4.80;99.90;;;;;;4154214;28;20108;-72
2021/11/23 03:45:34;;;;;;;6.00;4.50;;;4.80;99.90;;;;;;4152773;28;20112;-72
2021/11/23 03:47:36;;;;;;;8.80;4.70;;;4.80;99.90;;;;;;4126438;28;20025;-72
2021/11/23 03:49:37;;;;;;;5.85;4.25;;;4.80;99.90;;;;;;4145610;28;20056;-72
2021/11/23 03:51:37;;;;;;;6.40;4.43;;;4.90;99.90;;;;;;4146789;28;20033;-72
2021/11/23 03:53:38;;;;;;;6.43;4.30;;;4.90;99.90;;;;;;4149053;28;20408;-72
2021/11/23 03:55:40;;;;;;;8.30;5.20;;;4.90;99.90;;;;;;4154236;28;20029;-72
2021/11/23 03:57:41;;;;;;;6.28;4.57;;;4.90;99.90;;;;;;4153227;28;20033;-72
2021/11/23 03:59:47;;;;;;;7.00;4.70;;;5.00;99.90;;;;;;4149909;28;20113;-72
2021/11/23 04:01:48;;;;;;;9.45;5.53;;;5.00;99.90;;;;;;4143772;28;20034;-72
2021/11/23 04:03:48;;;;;;;8.13;5.57;;;5.00;99.90;;;;;;4150055;28;20508;-72
2021/11/23 04:05:49;;;;;;;7.97;4.88;;;5.00;99.90;;;;;;4154052;28;20116;-72
2021/11/23 04:07:49;;;;;;;10.05;5.65;;;5.10;99.90;;;;;;4136598;28;20034;-72
2021/11/23 04:09:50;;;;;;;8.63;4.72;;;5.10;99.90;;;;;;4149891;28;20026;-72
2021/11/23 04:11:51;;;;;;;10.70;5.72;;;5.10;99.90;;;;;;4149359;28;20099;-72
2021/11/23 04:13:51;;;;;;;9.25;5.78;;;5.10;99.90;;;;;;4134974;28;20037;-72
2021/11/23 04:15:52;;;;;;;11.68;6.43;;;5.10;99.90;;;;;;4147389;28;20105;-72
2021/11/23 04:17:53;;;;;;;12.02;7.20;;;5.10;99.90;;;;;;4131217;28;20030;-72
2021/11/23 04:19:53;;;;;;;13.27;8.13;;;5.10;99.90;;;;;;4143871;28;20054;-72
2021/11/23 04:21:57;;;;;;;17.30;10.05;;;5.10;99.90;;;;;;4149811;28;20041;-72
2021/11/23 04:23:57;;;;;;;17.80;9.25;;;5.10;99.90;;;;;;4138535;28;20037;-72
2021/11/23 04:25:58;;;;;;;19.55;9.20;;;5.10;99.90;;;;;;4149323;28;20041;-72
2021/11/23 04:27:59;;;;;;;15.80;8.85;;;5.00;99.90;;;;;;4146364;28;20037;-72
2021/11/23 04:29:59;;;;;;;13.40;8.13;;;5.00;99.90;;;;;;4133943;28;20042;-72
2021/11/23 04:32:00;;;;;;;11.25;7.25;;;5.00;99.90;;;;;;4150813;28;20061;-72
2021/11/23 04:34:01;;;;;;;12.15;7.65;;;5.00;99.90;;;;;;4139555;28;20030;-72
2021/11/23 04:36:03;;;;;;;12.57;7.70;;;5.00;99.90;;;;;;4149067;28;20045;-72
2021/11/23 04:38:03;;;;;;;11.20;7.25;;;5.00;99.90;;;;;;4153649;28;20160;-72
2021/11/23 04:40:05;;;;;;;11.27;7.03;;;5.00;99.90;;;;;;4147651;28;20056;-72
2021/11/23 04:42:06;;;;;;;10.73;6.53;;;5.00;99.90;;;;;;4152718;28;20080;-72
2021/11/23 04:44:07;;;;;;;11.13;7.07;;;5.00;99.90;;;;;;4154109;28;20033;-72
2021/11/23 04:46:08;;;;;;;12.10;7.25;;;5.00;99.90;;;;;;4151815;28;20030;-72
2021/11/23 04:48:09;;;;;;;10.43;6.68;;;5.00;99.90;;;;;;4138805;28;20058;-72
2021/11/23 04:50:12;;;;;;;11.98;7.03;;;4.90;99.90;;;;;;4147504;28;20482;-71
2021/11/23 04:52:12;;;;;;;12.30;7.72;;;5.00;99.90;;;;;;4153159;28;20520;-72
2021/11/23 04:54:13;;;;;;;11.43;7.10;;;5.00;99.90;;;;;;4152618;28;20026;-72
2021/11/23 04:56:14;;;;;;;11.82;7.25;;;5.00;99.90;;;;;;4152568;28;20038;-72
2021/11/23 04:58:15;;;;;;;13.35;8.02;;;5.00;99.90;;;;;;4154787;28;20040;-72
2021/11/23 05:00:17;;;;;;;12.77;7.55;;;5.00;99.90;;;;;;4129530;28;20026;-72
2021/11/23 05:02:19;;;;;;;;;;;5.00;99.90;;;;;;4158138;28;20037;-72
2021/11/23 05:04:19;;;;;;;10.77;7.60;;;5.00;99.90;;;;;;4135576;28;19936;-72
2021/11/23 05:06:20;;;;;;;13.57;8.00;;;5.00;99.90;;;;;;4148816;28;20602;-72
2021/11/23 05:08:21;;;;;;;14.85;7.72;;;5.00;99.90;;;;;;4150572;28;20118;-72
2021/11/23 05:10:22;;;;;;;12.50;7.97;;;5.00;99.90;;;;;;4152950;28;20449;-72
2021/11/23 05:12:22;;;;;;;13.43;8.07;;;5.00;99.90;;;;;;4130570;28;20069;-72
2021/11/23 05:14:23;;;;;;;13.70;8.25;;;5.00;99.90;;;;;;4156464;28;20033;-72
2021/11/23 05:16:24;;;;;;;12.80;8.32;;;4.90;99.90;;;;;;4151901;28;20021;-72
2021/11/23 05:18:24;;;;;;;13.35;8.25;;;5.00;99.90;;;;;;4148997;28;20026;-72
2021/11/23 05:20:25;;;;;;;11.90;7.70;;;5.00;99.90;;;;;;4149734;28;20046;-72
2021/11/23 05:22:26;;;;;;;11.85;8.15;;;5.00;99.90;;;;;;4157873;28;20038;-72
2021/11/23 05:24:26;;;;;;;13.82;8.60;;;5.00;99.90;;;;;;4152663;28;20116;-72
2021/11/23 05:26:27;;;;;;;12.38;8.30;;;5.00;99.90;;;;;;4146808;28;20038;-72
2021/11/23 05:28:28;;;;;;;15.55;8.10;;;5.00;99.90;;;;;;4147774;28;20072;-72
2021/11/23 05:30:29;;;;;;;13.60;8.73;;;5.00;99.90;;;;;;4153097;28;20042;-72
2021/11/23 05:32:30;;;;;;;13.88;8.55;;;5.00;99.90;;;;;;4151371;28;20034;-72
2021/11/23 05:34:30;;;;;;;15.90;9.05;;;5.00;99.90;;;;;;4146903;28;20030;-72
2021/11/23 05:36:31;;;;;;;15.50;9.02;;;5.00;99.90;;;;;;4150893;28;20125;-72
2021/11/23 05:38:32;;;;;;;14.65;8.77;;;5.00;99.90;;;;;;4128920;28;20081;-72
2021/11/23 05:40:32;;;;;;;16.73;9.38;;;5.10;99.90;;;;;;4147278;28;20041;-72
2021/11/23 05:42:34;;;;;;;16.55;9.15;;;5.10;99.90;;;;;;4153502;28;20485;-72
2021/11/23 05:44:35;;;;;;;13.77;8.75;;;5.10;99.90;;;;;;4154311;28;20069;-72
2021/11/23 05:46:37;;;;;;;16.05;8.70;;;5.10;99.90;;;;;;4130351;28;20169;-72
2021/11/23 05:48:37;;;;;;;14.03;7.97;;;5.10;99.90;;;;;;4149016;28;20029;-72
2021/11/23 05:50:39;;;;;;;14.13;8.27;;;5.10;99.90;;;;;;4155788;28;20485;-72
2021/11/23 05:52:40;;;;;;;16.40;8.80;;;5.10;99.90;;;;;;4131306;28;20046;-72
2021/11/23 05:54:41;;;;;;;17.00;9.60;;;5.10;99.90;;;;;;4150087;28;20044;-72
2021/11/23 05:56:41;;;;;;;16.98;9.45;;;5.10;99.90;;;;;;4152238;28;20536;-72
2021/11/23 05:58:42;;;;;;;14.23;9.20;;;5.20;99.90;;;;;;4125999;28;20117;-72
2021/11/23 06:00:43;;;;;;;13.25;8.95;;;5.10;99.90;;;;;;4123224;28;20473;-72
2021/11/23 06:02:43;;;;;;;14.55;9.20;;;5.20;99.90;;;;;;4141695;28;20120;-72
2021/11/23 06:04:44;;;;;;;15.85;9.20;;;5.20;99.90;;;;;;4123207;28;20038;-72
2021/11/23 06:06:46;;;;;;;13.68;9.15;;;5.20;99.90;;;;;;4140701;28;20052;-72
2021/11/23 06:08:47;;;;;;;15.30;8.90;;;5.20;99.90;;;;;;4143054;28;20025;-72
2021/11/23 06:10:47;;;;;;;13.15;8.50;;;5.20;99.90;;;;;;4142094;28;20114;-72
2021/11/23 06:12:49;;;;;;;16.80;8.98;;;5.20;99.90;;;;;;4140988;28;20029;-72
2021/11/23 06:14:49;;;;;;;12.80;8.68;;;5.20;99.90;;;;;;4139289;28;20157;-72
2021/11/23 06:16:50;;;;;;;14.68;9.18;;;5.10;99.90;;;;;;4142424;28;20501;-72
2021/11/23 06:18:51;;;;;;;17.65;9.43;;;5.10;99.90;;;;;;4121711;28;20038;-72
2021/11/23 06:20:56;;;;;;;18.10;10.10;;;5.10;99.90;;;;;;4141068;28;20061;-72
2021/11/23 06:23:01;;;;;;;17.70;9.48;;;5.10;99.90;;;;;;4141444;28;20538;-72
2021/11/23 06:25:05;;;;;;;15.07;8.95;;;5.10;99.90;;;;;;4141242;28;20033;-72
2021/11/23 06:27:05;;;;;;;14.65;9.02;;;5.10;99.90;;;;;;4122283;28;20121;-72
2021/11/23 06:29:06;;;;;;;15.32;8.93;;;5.10;99.90;;;;;;4139249;28;20490;-72
2021/11/23 06:31:07;;;;;;;16.85;9.20;;;5.10;99.90;;;;;;4141222;28;20037;-72
2021/11/23 06:33:08;;;;;;;14.65;8.50;;;5.10;99.90;;;;;;4143235;28;20469;-72
2021/11/23 06:35:09;;;;;;;13.48;8.70;;;5.10;99.90;;;;;;4140332;28;20549;-72
2021/11/23 06:37:10;;;;;;;14.15;8.15;;;5.10;99.90;;;;;;4121988;28;20180;-72
2021/11/23 06:39:11;;;;;;;15.15;9.30;;;5.10;99.90;;;;;;4141558;28;20038;-72
2021/11/23 06:41:11;;;;;;;13.63;8.90;;;5.00;99.90;;;;;;4122890;28;20030;-71
2021/11/23 06:43:12;;;;;;;11.73;8.35;;;5.10;99.90;;;;;;4122978;28;20042;-72
2021/11/23 06:45:13;;;;;;;14.13;8.48;;;5.10;99.90;;;;;;4139832;28;20057;-72
2021/11/23 06:47:14;;;;;;;14.00;8.52;;;5.10;99.90;;;;;;4140252;28;20125;-72
2021/11/23 06:49:14;;;;;;;14.38;8.63;;;5.10;99.90;;;;;;4139639;28;20486;-72
2021/11/23 06:51:15;;;;;;;14.85;9.13;;;5.10;99.90;;;;;;4138340;28;20517;-73
2021/11/23 06:53:16;;;;;;;15.13;8.45;;;5.20;99.90;;;;;;4139014;28;20410;-73
2021/11/23 06:55:16;;;;;;;11.63;8.27;;;5.20;99.90;;;;;;4138868;28;20172;-73
2021/11/23 06:57:17;;;;;;;13.82;8.68;;;5.20;99.90;;;;;;4120267;28;20081;-73
2021/11/23 06:59:18;;;;;;;15.57;9.05;;;5.20;99.90;;;;;;4142205;28;20752;-73
2021/11/23 07:01:18;;;;;;;14.25;9.20;;;5.20;99.90;;;;;;4139220;28;20037;-72
2021/11/23 07:03:19;;;;;;;18.95;9.63;;;5.20;99.90;;;;;;4139999;28;20095;-73
2021/11/23 07:05:20;;;;;;;14.88;9.18;;;5.20;99.90;;;;;;4140388;28;20069;-73
2021/11/23 07:07:20;;;;;;;13.60;8.52;;;5.20;99.90;;;;;;4120078;28;20053;-73
2021/11/23 07:09:21;;;;;;;14.30;8.60;;;5.30;99.90;;;;;;4123114;28;20030;-73
2021/11/23 07:11:22;;;;;;;13.98;9.70;;;5.30;99.90;;;;;;4140494;28;20033;-73
2021/11/23 07:13:23;;;;;;;14.07;8.98;;;5.30;99.90;;;;;;4139405;28;20034;-73
2021/11/23 07:15:24;;;;;;;14.80;8.60;;;5.30;99.90;;;;;;4141164;28;20059;-73
2021/11/23 07:17:25;;;;;;;14.32;8.98;;;5.20;99.90;;;;;;4140466;28;20057;-73
2021/11/23 07:19:25;;;;;;;14.88;9.60;;;5.30;99.90;;;;;;4138995;28;20050;-73
2021/11/23 07:21:26;;;;;;;15.63;9.98;;;5.20;99.90;;;;;;4122241;28;20060;-73
2021/11/23 07:23:27;;;;;;;16.70;10.20;;;5.20;99.90;;;;;;4125339;28;20752;-73
2021/11/23 07:25:28;;;;;;;16.23;9.98;;;5.20;99.90;;;;;;4142486;28;20069;-73
2021/11/23 07:27:28;;;;;;;18.33;10.07;;;5.20;99.90;;;;;;4139988;28;20457;-73
2021/11/23 07:29:29;;;;;;;16.77;9.63;;;5.30;99.90;;;;;;4139712;28;20026;-73
2021/11/23 07:31:30;;;;;;;17.30;10.23;;;5.30;99.90;;;;;;4121702;28;20038;-73
2021/11/23 07:33:30;;;;;;;16.00;9.70;;;5.30;99.90;;;;;;4143539;28;20243;-73
2021/11/23 07:35:31;;;;;;;16.23;10.30;;;5.30;99.90;;;;;;4140101;28;20391;-73
2021/11/23 07:37:37;;;;;;;18.98;10.48;;;5.30;99.90;;;;;;4119988;28;61720;-73
2021/11/23 07:39:37;;;;;;;15.35;11.40;;;5.30;99.90;;;;;;4122305;28;20037;-73
2021/11/23 07:41:38;;;;;;;18.42;11.45;;;5.20;99.90;;;;;;4124126;28;20125;-73
2021/11/23 07:43:39;;;;;;;17.55;10.40;;;5.20;99.90;;;;;;4126031;28;20564;-73
2021/11/23 07:45:40;;;;;;;23.63;11.27;;;5.20;99.90;;;;;;4121278;28;20050;-73
2021/11/23 07:47:41;;;;;;;19.48;10.43;;;5.10;99.90;;;;;;4121723;28;20688;-73
2021/11/23 07:49:41;;;;;;;22.25;11.25;;;5.20;99.90;;;;;;4126207;28;20123;-74
2021/11/23 07:51:42;;;;;;;20.65;11.98;;;5.10;99.90;;;;;;4122641;28;20030;-73
2021/11/23 07:53:43;;;;;;;22.92;12.43;;;5.10;99.90;;;;;;4121191;28;20026;-74
2021/11/23 07:55:48;;;;;;;17.75;11.52;;;5.10;99.90;;;;;;4122574;28;20030;-74
2021/11/23 07:57:49;;;;;;;18.35;10.98;;;5.10;99.90;;;;;;4123851;28;20117;-74
2021/11/23 07:59:50;;;;;;;18.65;11.63;;;5.10;99.90;;;;;;4123923;28;20069;-74
2021/11/23 08:01:51;;;;;;;19.90;12.27;;;5.10;99.90;;;;;;4120969;28;20041;-74
2021/11/23 08:03:51;;;;;;;23.52;12.93;;;5.00;99.90;;;;;;4122614;28;20034;-74
2021/11/23 08:05:52;;;;;;;18.60;10.93;;;5.10;99.90;;;;;;4123335;28;20085;-74
2021/11/23 08:07:53;;;;;;;17.15;10.63;;;5.00;99.90;;;;;;4121365;28;20396;-74
2021/11/23 08:09:54;;;;;;;19.80;12.13;;;5.00;99.90;;;;;;4122329;28;20023;-74
2021/11/23 08:11:54;;;;;;;23.05;12.38;;;5.00;99.90;;;;;;4136353;28;20417;-74
2021/11/23 08:13:55;;;;;;;16.33;11.25;;;5.00;99.90;;;;;;4124040;28;20053;-74
2021/11/23 08:15:55;;;;;;;17.08;11.13;;;5.00;99.90;;;;;;4121095;28;20034;-74
2021/11/23 08:17:56;;;;;;;20.00;10.90;;;5.00;99.90;;;;;;4121697;28;20038;-74
2021/11/23 08:19:57;;;;;;;19.25;11.55;;;5.10;99.90;;;;;;4120523;28;20096;-74
2021/11/23 08:21:58;;;;;;;18.55;11.10;;;5.10;99.90;;;;;;4116797;28;20029;-74
2021/11/23 08:23:58;;;;;;;20.50;12.38;;;5.10;99.90;;;;;;4117552;28;20566;-74
2021/11/23 08:25:59;;;;;;;21.10;11.88;;;5.10;99.90;;;;;;4123573;28;20070;-74
2021/11/23 08:28:01;;;;;;;20.20;12.30;;;5.10;99.90;;;;;;4122524;28;20061;-74
2021/11/23 08:30:03;;;;;;;21.88;11.80;;;5.10;99.90;;;;;;4121185;28;20076;-74
2021/11/23 08:32:04;;;;;;;19.17;11.73;;;5.10;99.90;;;;;;4122323;28;20039;-74
2021/11/23 08:34:05;;;;;;;20.88;12.65;;;5.20;99.90;;;;;;4137393;28;20030;-74
2021/11/23 08:36:06;;;;;;;21.45;11.80;;;5.20;99.90;;;;;;4120062;28;20034;-74
2021/11/23 08:38:06;;;;;;;20.15;11.02;;;5.20;99.90;;;;;;4121178;28;20521;-74
2021/11/23 08:40:08;;;;;;;17.75;11.13;;;5.20;99.90;;;;;;4121139;28;20062;-75
2021/11/23 08:42:09;;;;;;;21.42;11.85;;;5.30;99.90;;;;;;4118940;28;20038;-74
2021/11/23 08:44:09;;;;;;;19.60;11.35;;;5.30;99.90;;;;;;4120026;28;20093;-74
2021/11/23 08:46:10;;;;;;;20.60;12.00;;;5.40;99.90;;;;;;4134910;28;20100;-74
2021/11/23 08:48:11;;;;;;;17.75;11.13;;;5.40;99.90;;;;;;4116767;28;20462;-74
2021/11/23 08:50:12;;;;;;;18.70;11.15;;;5.40;99.90;;;;;;4120548;28;20578;-74
2021/11/23 08:52:14;;;;;;;18.08;11.93;;;5.40;99.90;;;;;;4121802;28;20034;-74
2021/11/23 08:54:15;;;;;;;20.70;12.13;;;5.50;99.90;;;;;;4121042;28;20570;-74
2021/11/23 08:56:15;;;;;;;16.42;11.30;;;5.40;99.90;;;;;;4119015;28;20030;-74
2021/11/23 08:58:16;;;;;;;22.55;13.13;;;5.40;99.90;;;;;;4120084;28;20100;-74
2021/11/23 09:00:18;;;;;;;21.20;12.43;;;5.40;99.90;;;;;;4119871;28;20045;-74
2021/11/23 09:02:20;;;;;;;16.45;10.25;;;5.40;99.90;;;;;;4120708;28;20446;-74
2021/11/23 09:04:21;;;;;;;19.48;12.02;;;5.40;99.90;;;;;;4124073;28;20096;-74
2021/11/23 09:06:25;;;;;;;22.15;12.85;;;5.50;99.90;;;;;;4117786;28;20249;-74
2021/11/23 09:08:26;;;;;;;22.52;12.88;;;5.50;99.90;;;;;;4120862;28;20232;-74
2021/11/23 09:10:29;;;;;;;20.60;12.90;;;5.50;99.90;;;;;;4121828;28;20478;-74
2021/11/23 09:12:30;;;;;;;18.02;11.48;;;5.40;99.90;;;;;;4121299;28;20608;-74
2021/11/23 09:14:33;;;;;;;18.38;11.32;;;5.50;99.90;;;;;;4120262;28;20304;-74
2021/11/23 09:16:35;;;;;;;19.65;11.95;;;5.50;99.90;;;;;;4118876;28;20125;-74
2021/11/23 09:18:36;;;;;;;17.57;11.60;;;5.60;99.90;;;;;;4121777;28;20426;-74
2021/11/23 09:20:37;;;;;;;17.10;11.73;;;5.60;99.90;;;;;;4121031;28;20057;-74
2021/11/23 09:22:40;;;;;;;19.50;12.43;;;5.60;99.90;;;;;;4121662;28;20425;-74
2021/11/23 09:24:40;;;;;;;18.55;11.00;;;5.60;99.90;;;;;;4124258;28;20120;-74
2021/11/23 09:26:41;;;;;;;16.73;11.48;;;5.60;99.90;;;;;;4121506;28;20506;-74
2021/11/23 09:28:42;;;;;;;18.77;11.45;;;5.60;99.90;;;;;;4121843;28;20038;-74
2021/11/23 09:30:43;;;;;;;20.25;12.45;;;5.60;99.90;;;;;;4121786;28;20600;-74
2021/11/23 09:32:47;;;;;;;15.95;11.25;;;5.60;99.90;;;;;;4124450;28;20092;-74
2021/11/23 09:34:48;;;;;;;19.17;12.20;;;5.60;99.90;;;;;;4121994;28;20600;-74
2021/11/23 09:36:51;;;;;;;19.40;12.27;;;5.60;99.90;;;;;;4121705;28;20034;-74
2021/11/23 09:38:52;;;;;;;18.33;12.15;;;5.60;99.90;;;;;;4122995;28;20364;-74
2021/11/23 09:40:53;;;;;;;16.98;11.23;;;5.60;99.90;;;;;;4124244;28;20041;-74
2021/11/23 09:42:54;;;;;;;16.20;10.68;;;5.60;99.90;;;;;;4121092;28;20120;-74
2021/11/23 09:44:56;;;;;;;17.80;10.88;;;5.70;99.90;;;;;;4122245;28;20030;-74
2021/11/23 09:46:56;;;;;;;19.55;11.32;;;5.70;99.90;;;;;;4120870;28;20054;-74
2021/11/23 09:48:57;;;;;;;21.33;11.38;;;5.70;99.90;;;;;;4126546;28;20563;-74
2021/11/23 09:50:59;;;;;;;19.88;11.85;;;5.70;99.90;;;;;;4135672;28;20476;-74
2021/11/23 09:53:00;;;;;;;18.33;11.85;;;5.70;99.90;;;;;;4121926;28;20030;-74
2021/11/23 09:55:02;;;;;;;20.10;11.90;;;5.80;99.90;;;;;;4124964;28;20047;-74
2021/11/23 09:57:03;;;;;;;19.40;12.45;;;5.80;99.90;;;;;;4122971;28;20136;-74
2021/11/23 09:59:05;;;;;;;20.48;12.70;;;5.80;99.90;;;;;;4124772;28;20046;-74
2021/11/23 10:01:11;;;;;;;18.67;12.55;;;5.80;99.90;;;;;;4123860;28;20042;-74
2021/11/23 10:03:29;;;;;;;17.88;11.93;;;5.80;99.90;;;;;;4122496;28;20607;-74
2021/11/23 10:05:33;;;;;;;20.42;13.05;;;5.90;99.90;;;;;;4124092;28;20043;-74
2021/11/23 10:07:38;;;;;;;19.35;11.77;;;5.90;99.90;;;;;;4123111;28;20041;-74
2021/11/23 10:09:42;;;;;;;19.48;11.40;;;5.90;99.90;;;;;;4122547;28;20070;-74
2021/11/23 10:11:44;;;;;;;21.27;12.13;;;6.00;99.90;;;;;;4122249;28;20034;-74
2021/11/23 10:13:48;;;;;;;19.73;12.90;;;6.00;99.90;;;;;;4125454;28;20379;-74
2021/11/23 10:15:50;;;;;;;27.10;14.27;;;6.10;99.90;;;;;;4124974;28;20068;-74
2021/11/23 10:17:54;;;;;;;25.08;13.75;;;6.10;99.90;;;;;;4127083;28;20462;-74
2021/11/23 10:19:55;;;;;;;23.17;13.15;;;6.00;99.90;;;;;;4120827;28;20042;-74
2021/11/23 10:21:56;;;;;;;22.63;12.25;;;6.10;99.90;;;;;;4123254;28;20033;-74
2021/11/23 10:23:57;;;;;;;21.92;13.38;;;6.10;99.90;;;;;;4124979;28;20041;-74
2021/11/23 10:26:18;;;;;;;22.08;13.63;;;6.20;99.90;;;;;;4124423;28;20430;-74
2021/11/23 10:28:21;;;;;;;21.95;13.05;;;6.20;99.90;;;;;;4103149;28;20272;-74
2021/11/23 10:30:22;;;;;;;18.95;11.65;;;6.20;99.90;;;;;;4115225;28;20034;-74
2021/11/23 10:32:22;;;;;;;23.00;12.15;;;6.20;99.90;;;;;;4116230;28;20047;-74